createdAt,value
2017-07-18T00:04:56.025Z,3.87
2017-07-18T00:09:57.767Z,2.73
2017-07-18T00:14:59.482Z,2.53
2017-07-18T00:20:01.550Z,2.67
2017-07-18T00:25:03.293Z,2.70
2017-07-18T00:30:05.030Z,2.90
2017-07-18T00:35:06.852Z,3.30
2017-07-18T00:40:08.571Z,3.33
2017-07-18T00:45:10.311Z,3.13
2017-07-18T00:50:12.073Z,2.60
2017-07-18T00:55:13.824Z,2.90
2017-07-18T01:00:16.188Z,2.87
2017-07-18T01:05:18.229Z,2.77
2017-07-18T01:10:19.955Z,3.40
2017-07-18T01:15:22.272Z,2.90
2017-07-18T01:20:24.565Z,3.10
2017-07-18T01:25:26.865Z,3.10
2017-07-18T01:30:29.192Z,3.40
2017-07-18T01:35:31.483Z,2.53
2017-07-18T01:40:33.231Z,3.70
2017-07-18T01:45:35.016Z,3.80
2017-07-18T01:50:36.794Z,3.10
2017-07-18T01:55:38.590Z,3.80
2017-07-18T02:00:40.436Z,3.33
2017-07-18T02:05:42.307Z,3.63
2017-07-18T02:10:44.087Z,3.67
2017-07-18T02:15:45.839Z,3.53
2017-07-18T02:20:47.583Z,3.13
2017-07-18T02:25:50.090Z,3.47
2017-07-18T02:30:51.844Z,3.83
2017-07-18T02:35:53.681Z,3.90
2017-07-18T02:40:55.427Z,4.10
2017-07-18T02:45:57.178Z,3.43
2017-07-18T02:50:58.895Z,3.87
2017-07-18T02:56:00.793Z,4.47
2017-07-18T03:01:03.286Z,4.27
2017-07-18T03:06:05.025Z,4.00
2017-07-18T03:11:06.771Z,4.50
2017-07-18T03:16:08.504Z,3.80
2017-07-18T03:21:10.260Z,3.00
2017-07-18T03:26:12.027Z,3.90
2017-07-18T03:31:15.068Z,4.30
2017-07-18T03:36:16.863Z,3.20
2017-07-18T03:41:24.001Z,3.20
2017-07-18T03:46:27.739Z,3.40
2017-07-18T03:51:29.899Z,4.23
2017-07-18T03:56:31.632Z,3.90
2017-07-18T04:01:33.343Z,4.17
2017-07-18T04:06:35.096Z,4.30
2017-07-18T04:11:36.849Z,4.57
2017-07-18T04:16:38.591Z,3.87
2017-07-18T04:21:40.361Z,4.50
2017-07-18T04:26:42.870Z,4.17
2017-07-18T04:31:44.607Z,4.57
2017-07-18T04:36:46.348Z,4.20
2017-07-18T04:41:48.127Z,3.93
2017-07-18T04:46:49.912Z,4.10
2017-07-18T04:51:52.075Z,5.20
2017-07-18T04:56:53.816Z,3.90
2017-07-18T05:01:55.563Z,4.10
2017-07-18T05:06:57.283Z,3.90
2017-07-18T05:11:59.031Z,3.53
2017-07-18T05:17:00.768Z,4.00
2017-07-18T05:22:02.589Z,3.57
2017-07-18T05:27:05.108Z,4.00
2017-07-18T05:32:06.863Z,4.33
2017-07-18T05:37:08.622Z,3.60
2017-07-18T05:42:10.375Z,4.27
2017-07-18T05:47:12.113Z,3.60
2017-07-18T05:52:14.697Z,3.63
2017-07-18T05:57:16.444Z,2.97
2017-07-18T06:02:18.943Z,2.77
2017-07-18T06:07:20.711Z,3.60
2017-07-18T06:12:22.476Z,3.03
2017-07-18T06:17:24.323Z,4.83
2017-07-18T06:22:26.073Z,3.40
2017-07-18T06:27:27.812Z,3.50
2017-07-18T06:32:29.531Z,3.10
2017-07-18T06:37:31.279Z,3.10
2017-07-18T06:42:33.031Z,2.53
2017-07-18T06:47:34.822Z,2.40
2017-07-18T06:52:36.558Z,2.50
2017-07-18T06:57:38.290Z,3.03
2017-07-18T07:02:40.039Z,2.20
2017-07-18T07:07:41.771Z,2.70
2017-07-18T07:12:46.523Z,2.60
2017-07-18T07:17:48.705Z,2.60
2017-07-18T07:22:50.477Z,2.20
2017-07-18T07:27:52.256Z,2.53
2017-07-18T07:32:54.021Z,2.57
2017-07-18T07:37:55.777Z,2.43
2017-07-18T07:42:57.606Z,3.20
2017-07-18T07:47:59.436Z,2.60
2017-07-18T07:53:03.216Z,3.10
2017-07-18T07:58:05.028Z,2.83
2017-07-18T08:03:06.835Z,2.60
2017-07-18T08:08:08.566Z,3.20
2017-07-18T08:13:10.937Z,3.67
2017-07-18T08:18:12.699Z,3.17
2017-07-18T08:23:14.452Z,3.17
2017-07-18T08:28:16.213Z,2.77
2017-07-18T08:33:18.364Z,2.70
2017-07-18T08:38:21.942Z,3.10
2017-07-18T08:43:24.660Z,3.30
2017-07-18T08:48:26.498Z,3.97
2017-07-18T08:53:28.455Z,4.03
2017-07-18T08:58:30.678Z,3.50
2017-07-18T09:03:33.203Z,3.10
2017-07-18T09:08:35.095Z,3.50
2017-07-18T09:13:36.911Z,4.87
2017-07-18T09:18:38.717Z,2.87
2017-07-18T09:23:40.658Z,3.20
2017-07-18T09:28:42.583Z,4.17
2017-07-18T09:33:50.543Z,3.37
2017-07-18T09:38:53.611Z,3.10
2017-07-18T09:43:56.063Z,3.40
2017-07-18T09:48:59.024Z,3.87
2017-07-18T09:54:01.271Z,3.40
2017-07-18T09:59:03.813Z,3.83
2017-07-18T10:04:05.788Z,3.33
2017-07-18T10:09:07.688Z,3.73
2017-07-18T10:14:09.598Z,3.27
2017-07-18T10:19:11.367Z,4.00
2017-07-18T10:24:13.243Z,4.00
2017-07-18T10:29:19.158Z,3.93
2017-07-18T10:34:21.393Z,3.50
2017-07-18T10:39:25.710Z,3.33
2017-07-18T10:44:28.500Z,3.10
2017-07-18T10:49:30.297Z,2.73
2017-07-18T10:54:32.165Z,3.90
2017-07-18T10:59:34.424Z,3.40
2017-07-18T11:04:36.415Z,3.40
2017-07-18T11:09:38.957Z,3.17
2017-07-18T11:14:40.704Z,4.07
2017-07-18T11:19:42.630Z,4.40
2017-07-18T11:24:44.513Z,3.80
2017-07-18T11:29:46.299Z,4.50
2017-07-18T11:34:48.193Z,4.63
2017-07-18T11:39:50.119Z,3.93
2017-07-18T11:44:51.925Z,3.90
2017-07-18T11:49:53.782Z,3.43
2017-07-18T11:54:56.496Z,3.80
2017-07-18T11:59:58.255Z,3.30
2017-07-18T12:05:00.826Z,3.40
2017-07-18T12:10:03.381Z,3.43
2017-07-18T12:15:05.227Z,3.77
2017-07-18T12:20:07.023Z,4.07
2017-07-18T12:25:08.762Z,3.83
2017-07-18T12:30:10.564Z,3.60
2017-07-18T12:35:12.412Z,2.90
2017-07-18T12:40:14.215Z,4.17
2017-07-18T12:45:16.754Z,3.97
2017-07-18T12:50:18.517Z,3.20
2017-07-18T12:55:20.401Z,3.67
2017-07-18T13:00:23.812Z,3.67
2017-07-18T13:05:25.647Z,3.90
2017-07-18T13:10:27.456Z,3.47
2017-07-18T13:15:29.290Z,3.87
2017-07-18T13:20:32.837Z,3.63
2017-07-18T13:25:35.500Z,3.50
2017-07-18T13:30:37.316Z,3.50
2017-07-18T13:35:39.116Z,3.50
2017-07-18T13:40:40.892Z,4.17
2017-07-18T13:45:44.955Z,3.37
2017-07-18T13:50:47.531Z,4.20
2017-07-18T13:55:50.080Z,3.83
2017-07-18T14:00:52.075Z,3.50
2017-07-18T14:05:54.075Z,3.27
2017-07-18T14:10:55.896Z,3.40
2017-07-18T14:15:57.779Z,3.57
2017-07-18T14:20:59.696Z,3.33
2017-07-18T14:26:02.743Z,3.43
2017-07-18T14:31:07.237Z,2.83
2017-07-18T14:36:17.957Z,2.53
2017-07-18T14:41:24.482Z,3.53
2017-07-18T14:46:26.429Z,2.90
2017-07-18T14:51:28.280Z,3.50
2017-07-18T14:56:30.166Z,3.10
2017-07-18T15:01:39.052Z,4.13
2017-07-18T15:06:40.783Z,3.10
2017-07-18T15:11:45.772Z,3.17
2017-07-18T15:16:47.711Z,2.90
2017-07-18T15:21:51.813Z,2.97
2017-07-18T15:26:57.494Z,3.20
2017-07-18T15:32:10.097Z,3.03
2017-07-18T15:42:46.410Z,3.27
2017-07-18T15:47:48.227Z,3.50
2017-07-18T15:52:50.091Z,3.17
2017-07-18T15:57:51.904Z,2.53
2017-07-18T16:02:53.704Z,3.07
2017-07-18T16:07:57.056Z,3.13
2017-07-18T16:13:10.144Z,3.10
2017-07-18T16:18:13.056Z,2.87
2017-07-18T16:23:14.868Z,2.70
2017-07-18T16:28:22.337Z,2.87
2017-07-18T16:33:27.702Z,3.40
2017-07-18T16:38:29.780Z,3.40
2017-07-18T16:43:31.645Z,3.30
2017-07-18T16:48:34.014Z,3.17
2017-07-18T16:53:36.095Z,2.80
2017-07-18T16:58:37.838Z,3.30
2017-07-18T17:03:39.636Z,2.80
2017-07-18T17:08:41.395Z,3.00
2017-07-18T17:13:45.143Z,3.13
2017-07-18T17:18:47.035Z,3.30
2017-07-18T17:23:49.599Z,2.70
2017-07-18T17:28:51.340Z,3.00
2017-07-18T17:34:05.475Z,2.63
2017-07-18T17:39:07.811Z,3.10
2017-07-18T17:44:10.831Z,2.77
2017-07-18T17:49:12.721Z,3.20
2017-07-18T17:54:16.727Z,3.40
2017-07-18T17:59:18.778Z,3.23
2017-07-18T18:04:20.969Z,2.60
2017-07-18T18:09:23.244Z,2.90
2017-07-18T18:14:25.604Z,3.50
2017-07-18T18:19:27.337Z,3.50
2017-07-18T18:24:29.083Z,3.50
2017-07-18T18:29:30.808Z,3.40
2017-07-18T18:34:34.181Z,3.17
2017-07-18T18:39:37.736Z,3.03
2017-07-18T18:44:39.472Z,3.60
2017-07-18T18:49:41.324Z,3.50
2017-07-18T18:54:43.046Z,3.47
2017-07-18T18:59:44.775Z,3.13
2017-07-18T19:04:46.556Z,3.30
2017-07-18T19:09:48.258Z,3.63
2017-07-18T19:14:51.042Z,3.20
2017-07-18T19:19:52.809Z,3.60
2017-07-18T19:24:54.782Z,3.80
2017-07-18T19:29:57.285Z,3.40
2017-07-18T19:34:58.999Z,3.37
2017-07-18T19:40:00.763Z,3.47
2017-07-18T19:45:02.572Z,3.53
2017-07-18T19:50:05.008Z,3.33
2017-07-18T19:55:06.754Z,3.50
2017-07-18T20:00:09.234Z,3.33
2017-07-18T20:05:11.147Z,3.20
2017-07-18T20:10:15.004Z,3.70
2017-07-18T20:15:16.912Z,3.43
2017-07-18T20:20:20.785Z,4.10
2017-07-18T20:25:23.281Z,3.57
2017-07-18T20:30:25.079Z,3.07
2017-07-18T20:35:26.806Z,4.30
2017-07-18T20:40:28.513Z,3.50
2017-07-18T20:45:30.223Z,3.67
2017-07-18T20:50:31.947Z,3.80
2017-07-18T20:55:33.671Z,3.07
2017-07-18T21:00:35.427Z,3.40
2017-07-18T21:05:37.155Z,2.73
2017-07-18T21:10:38.905Z,3.40
2017-07-18T21:15:40.615Z,3.20
2017-07-18T21:20:42.311Z,3.00
2017-07-18T21:25:44.019Z,3.03
2017-07-18T21:30:45.783Z,3.17
2017-07-18T21:35:47.604Z,3.77
2017-07-18T21:40:49.342Z,3.63
2017-07-18T21:45:51.043Z,3.43
2017-07-18T21:50:52.793Z,3.83
2017-07-18T21:55:54.506Z,4.23
2017-07-18T22:00:56.219Z,4.00
2017-07-18T22:05:57.942Z,3.67
2017-07-18T22:10:59.644Z,4.20
2017-07-18T22:16:01.346Z,4.00
2017-07-18T22:21:03.059Z,4.27
2017-07-18T22:26:04.790Z,4.87
2017-07-18T22:31:06.527Z,4.53
2017-07-18T22:36:08.284Z,3.47
2017-07-18T22:41:10.017Z,4.60
2017-07-18T22:46:11.759Z,4.93
2017-07-18T22:51:13.479Z,5.40
2017-07-18T22:56:15.186Z,4.43
2017-07-18T23:01:16.877Z,4.80
2017-07-18T23:06:18.608Z,5.50
2017-07-18T23:11:20.319Z,4.90
2017-07-18T23:16:22.047Z,4.83
2017-07-18T23:21:24.047Z,4.80
2017-07-18T23:26:26.214Z,4.80
2017-07-18T23:31:28.160Z,4.57
2017-07-18T23:36:29.899Z,4.77
2017-07-18T23:41:31.604Z,5.27
2017-07-18T23:46:33.319Z,4.80
2017-07-18T23:51:35.039Z,4.33
2017-07-18T23:56:36.770Z,3.90
